Tiempo atmosférico en la estación meteorológica de Hermigua, Santa Cruz de Tenerife (252 m.)



Fecha
DESCASC
Temp. máxima en grados centígrados (hora)
DESCASC
Temp. mínima en grados centígrados (hora)
DESCASC
Temp. media en grados centígrados
DESCASC
Racha de viento máxima en m/sg (hora)
DESCASC
Velocidad máxima media en intervalos de 10 minutos(hora)
DESCASC
Precipitaciones diarias en mm
DESCASC
Precipitaciones de 00:00 a 06:00 en mm
DESCASC
Precipitaciones de 06:00 a 12:00 en mm
DESCASC
Precipitaciones de 12:00 a 18:00 en mm
DESCASC
Precipitaciones de 18:00 a 24:00 en mm
DESCASC
23-05-2020 23.6 (16:00) 17.7 (23:20) 20.7 7.22 (14:20) 3.33 (15:10) 0 0 0 0 0
22-05-2020 22.1 (17:20) 16.6 (05:10) 19.4 7.22 (14:50) 3.33 (15:20) 0 0 0 0 0
21-05-2020 21.4 (16:30) 16.4 (00:00) 18.9 7.22 (16:00) 3.33 (16:00) 0 0 0 0 0
20-05-2020 22.5 (16:10) 17.6 (00:00) 20.1 7.78 (13:50) 3.61 (15:00) 0 0 0 0 0
19-05-2020 20.2 (13:50) 17.6 (00:00) 18.9 7.5 (05:50) 3.89 (16:10) 0 0 0 0 0
18-05-2020 20.8 (12:50) 14.5 (00:00) 17.6 8.06 (16:40) 4.17 (16:40) 0 0 0 0 0
17-05-2020 19.8 (10:30) 16.2 (00:00) 18 8.06 (12:00) 3.89 (12:00) 0 0 0 0 0
16-05-2020 21.3 (16:00) 16.9 (00:00) 19.1 9.72 (22:20) 3.89 (20:40) 0 0 0 0 0
15-05-2020 20.6 (15:50) 15.9 (03:40) 18.3 12.5 (09:40) 5.83 (01:40) 0.4 0.4 0 0 0
14-05-2020 20.1 (11:30) 14.2 (00:00) 17.2 13.89 (22:20) 6.94 (19:10) 0 0 0 0 0
13-05-2020 21.7 (12:20) 16.8 (00:00) 19.3 12.78 (14:40) 5.56 (22:30) 0.8 0.8 0 0 0
12-05-2020 20.8 (13:40) 17.3 (03:40) 19 12.22 (10:30) 6.11 (22:00) 0 0 0 0 0
11-05-2020 24.1 (14:10) 17.7 (00:00) 20.9 12.22 (20:20) 6.39 (20:20) 0 0 0 0 0
10-05-2020 22.7 (13:30) 17.2 (00:00) 20 10.28 (19:20) 5.56 (17:40) 0 0 0 0 0
09-05-2020 21.7 (10:20) 14 (05:00) 17.9 8.33 (21:30) 3.89 (14:10) 2.4 0 0.2 2.2 0
08-05-2020 22.6 (18:20) 15.4 (00:00) 19 7.22 (13:20) 3.61 (13:20) 0 0 0 0 0
07-05-2020 22.1 (16:00) 15.2 (00:00) 18.7 8.33 (13:20) 3.89 (11:20) 0 0 0 0 0
06-05-2020 21.7 (16:50) 15.6 (00:00) 18.7 6.39 (15:30) 3.61 (15:20) 0 0 0 0 0
05-05-2020 21.6 (15:20) 14.1 (00:00) 17.9 7.22 (11:30) 3.61 (13:10) 0 0 0 0 0
04-05-2020 21.4 (10:30) 15.6 (00:00) 18.5 8.33 (00:20) 3.33 (00:40) 0 0 0 0 0
03-05-2020 23.7 (18:00) 12.4 (07:00) 18.1 10 (21:00) 5 (20:20) 0 0 0 0 0
02-05-2020 22.4 (16:50) 14.6 (07:40) 18.5 6.11 (12:00) 3.06 (14:00) 0 0 0 0 0
01-05-2020 21.8 (16:30) 14.7 (00:00) 18.2 6.94 (14:40) 3.33 (15:00) 0 0 0 0 0
30-04-2020 21.4 (17:20) 16.2 (05:10) 18.8 7.22 (12:00) 3.61 (12:00) 0 0 0 0 0
29-04-2020 20.5 (16:40) 16.2 (00:00) 18.4 7.22 (12:00) 3.33 (12:10) 0 0 0 0 0

Gráficas

Temp. máximas Temp. mínimas Temp. medias Precipitaciones Rachas de viento máximas Velocidades máximas media en intervalos de 10 minutos

Datos horarios

Fecha y hora oficial Temperatura (ºC) Velocidad del viento (km/h) Dirección del viento Racha (km/h) Dirección de racha Precipitación (mm) Presión (hPa) Tendencia (hPa) Humedad (%)
2020-05-28 23:00:00 18.7 5 Norte 12 Nordeste 0 -- -- 87
2020-05-28 22:00:00 18.9 5 Nordeste 12 Norte 0 -- -- 86
2020-05-28 21:00:00 19 4 Nordeste 13 Nordeste 0 -- -- 87
2020-05-28 20:00:00 19.5 6 Nordeste 14 Este 0 -- -- 84
2020-05-28 19:00:00 19.7 6 Nordeste 15 Norte 0 -- -- 83
2020-05-28 18:00:00 20.4 9 Nordeste 19 Este 0 -- -- 80
2020-05-28 17:00:00 20.9 8 Nordeste 21 Nordeste 0 -- -- 78
2020-05-28 16:00:00 21.5 9 Nordeste 18 Nordeste 0 -- -- 75
2020-05-28 15:00:00 21.5 9 Nordeste 19 Norte 0 -- -- 77
2020-05-28 14:00:00 21.4 10 Nordeste 20 Norte 0 -- -- 76
2020-05-28 13:00:00 21.3 10 Nordeste 19 Nordeste 0 -- -- 78
2020-05-28 12:00:00 21.3 8 Nordeste 16 Este 0 -- -- 78
2020-05-28 11:00:00 21.2 6 Nordeste 14 Nordeste 0 -- -- 78
2020-05-28 10:00:00 20.5 4 Norte 10 Nordeste 0 -- -- 80
2020-05-28 09:00:00 18.5 3 Sudoeste 5 Sur 0 -- -- 89
2020-05-28 08:00:00 16.2 4 Sudeste 6 Sudeste 0 -- -- 95
2020-05-28 07:00:00 16.5 2 Sudeste 9 Sudeste 0 -- -- 96
2020-05-28 06:00:00 16.5 7 Este 10 Nordeste 0 -- -- 98
2020-05-28 05:00:00 14.9 3 Sudeste 6 Sur 0 -- -- 87
2020-05-28 04:00:00 15.8 4 Este 8 Este 0 -- -- 95
2020-05-28 03:00:00 16.1 2 Este 5 Este 0 -- -- 91
2020-05-28 02:00:00 16.7 3 Este 5 Este 0 -- -- 92
2020-05-28 01:00:00 16.4 2 Este 4 Sudeste 0 -- -- 89
2020-05-28 00:00:00 18 0 Calma 4 Este 0 -- -- 89
2020-05-27 23:00:00 18.4 2 Este 5 Nordeste 0 -- -- 90
2020-05-27 22:00:00 18.6 2 Este 8 Este 0 -- -- 91
2020-05-27 21:00:00 18.8 3 Nordeste 12 Este 0 -- -- 89
2020-05-27 20:00:00 19.6 6 Este 14 Norte 0 -- -- 86
2020-05-27 19:00:00 21.1 7 Nordeste 18 Nordeste 0 -- -- 80
2020-05-27 18:00:00 21.5 9 Nordeste 17 Nordeste 0 -- -- 78
2020-05-27 17:00:00 21.5 9 Nordeste 17 Este 0 -- -- 78
2020-05-27 16:00:00 21.9 9 Nordeste 16 Nordeste 0 -- -- 78
2020-05-27 15:00:00 21.6 9 Nordeste 18 Nordeste 0 -- -- 79
2020-05-27 14:00:00 21.6 12 Nordeste 20 Nordeste 0 -- -- 78
2020-05-27 13:00:00 22 8 Nordeste 14 Nordeste 0 -- -- 74
2020-05-27 12:00:00 21 9 Nordeste 16 Nordeste 0 -- -- 77
2020-05-27 11:00:00 20.6 4 Norte 13 Nordeste 0 -- -- 79
2020-05-27 10:00:00 19.4 5 Norte 10 Norte 0 -- -- 84
2020-05-27 09:00:00 17.1 2 Nordeste 6 Este 0 -- -- 96
2020-05-27 08:00:00 16.5 3 Este 8 Este 0 -- -- 97
2020-05-27 07:00:00 15.7 3 Este 5 Este 0 -- -- 95
2020-05-27 06:00:00 16.4 3 Este 8 Este 0 -- -- 95
2020-05-27 05:00:00 16.2 3 Este 5 Sur 0 -- -- 92
2020-05-27 04:00:00 17.2 3 Sudoeste 6 Sur 0 -- -- 95
2020-05-27 03:00:00 17.2 2 Este 10 Este 0 -- -- 96
2020-05-27 02:00:00 16.9 5 Este 10 Nordeste 0 -- -- 95
2020-05-27 01:00:00 17.7 0 Calma 6 Oeste 0 -- -- 91
2020-05-27 00:00:00 18 2 Este 5 Nordeste 0 -- -- 91
2020-05-26 23:00:00 18.3 0 Calma 5 Norte 0 -- -- 90
2020-05-26 22:00:00 18.7 0 Calma 8 Este 0 -- -- 92
2020-05-26 21:00:00 19 2 Nordeste 7 Nordeste 0 -- -- 91
2020-05-26 20:00:00 19.6 5 Nordeste 13 Nordeste 0 -- -- 88
2020-05-26 19:00:00 21 7 Nordeste 16 Nordeste 0 -- -- 81
2020-05-26 18:00:00 21.6 8 Nordeste 17 Nordeste 0 -- -- 78
2020-05-26 17:00:00 22.1 8 Nordeste 18 Nordeste 0 -- -- 76
2020-05-26 16:00:00 21.6 10 Nordeste 18 Este 0 -- -- 77
2020-05-26 15:00:00 21.6 10 Nordeste 18 Este 0 -- -- 77
2020-05-26 14:00:00 21.8 8 Nordeste 21 Este 0 -- -- 76
2020-05-26 13:00:00 21.1 9 Nordeste 17 Este 0 -- -- 78
2020-05-26 12:00:00 20.7 7 Nordeste 16 Este 0 -- -- 79
2020-05-26 11:00:00 20.3 7 Este 17 Nordeste 0 -- -- 80
2020-05-26 10:00:00 19.8 5 Nordeste 9 Norte 0 -- -- 81
2020-05-26 09:00:00 17.6 4 Sudoeste 8 Sudoeste 0 -- -- 88
2020-05-26 08:00:00 16.6 3 Sudoeste 6 Sur 0 -- -- 93
2020-05-26 07:00:00 16.2 3 Sudeste 6 Sur 0 -- -- 92
2020-05-26 06:00:00 17 3 Sudoeste 5 Sudoeste 0 -- -- 92
2020-05-26 05:00:00 17.1 2 Sudoeste 5 Sudeste 0 -- -- 93
2020-05-26 04:00:00 17.2 2 Sudoeste 5 Sur 0 -- -- 92
2020-05-26 03:00:00 17.6 4 Sur 7 Sur 0 -- -- 92
2020-05-26 02:00:00 17.9 0 Calma 5 Sudeste 0 -- -- 92
2020-05-26 01:00:00 17.8 0 Calma 5 Sur 0 -- -- 92
2020-05-26 00:00:00 18.3 2 Este 6 Nordeste 0 -- -- 93
2020-05-25 23:00:00 18.7 2 Sudeste 5 Nordeste 0 -- -- 92
2020-05-25 22:00:00 18.8 2 Nordeste 6 Este 0 -- -- 92
2020-05-25 21:00:00 19 4 Nordeste 7 Nordeste 0 -- -- 91
2020-05-25 20:00:00 19.7 5 Nordeste 12 Nordeste 0 -- -- 87
2020-05-25 19:00:00 21.6 4 Norte 16 Nordeste 0 -- -- 79
2020-05-25 18:00:00 21.5 8 Nordeste 17 Nordeste 0 -- -- 79
2020-05-25 17:00:00 21.5 10 Nordeste 19 Nordeste 0 -- -- 79
2020-05-25 16:00:00 21.7 9 Nordeste 21 Norte 0 -- -- 78
2020-05-25 15:00:00 21.9 9 Nordeste 18 Nordeste 0 -- -- 77
2020-05-25 14:00:00 21.6 9 Nordeste 18 Nordeste 0 -- -- 79
2020-05-25 13:00:00 21.4 8 Nordeste 18 Nordeste 0 -- -- 79
2020-05-25 12:00:00 21.2 8 Nordeste 15 Nordeste 0 -- -- 79
2020-05-25 11:00:00 20.8 5 Norte 18 Nordeste 0 -- -- 80
2020-05-25 10:00:00 19.8 7 Nordeste 13 Este 0 -- -- 85
2020-05-25 09:00:00 19.4 6 Nordeste 13 Este 0 -- -- 86
2020-05-25 08:00:00 15.5 0 Calma 12 Sudeste 0 -- -- 82
2020-05-25 07:00:00 15.9 3 Este 8 Este 0 -- -- 94
2020-05-25 06:00:00 17 6 Este 11 Nordeste 0 -- -- 94
2020-05-25 05:00:00 16.8 4 Sur 8 Sur 0 -- -- 93
2020-05-25 04:00:00 17.4 9 Este 14 Este 0 -- -- 93
2020-05-25 03:00:00 17.6 5 Este 10 Nordeste 0 -- -- 93
2020-05-25 02:00:00 17.8 3 Sur 13 Nordeste 0 -- -- 91
2020-05-25 01:00:00 18.3 3 Sudeste 7 Este 0 -- -- 92
2020-05-25 00:00:00 18.9 4 Sudoeste 7 Sudoeste 0 -- -- 90
2020-05-24 23:00:00 19.3 3 Este 6 Nordeste 0 -- -- 90
2020-05-24 22:00:00 19.3 4 Nordeste 11 Nordeste 0 -- -- 91
2020-05-24 21:00:00 19.7 3 Este 12 Nordeste 0 -- -- 90
2020-05-24 20:00:00 20.4 4 Nordeste 16 Nordeste 0 -- -- 87
2020-05-24 19:00:00 21.5 9 Nordeste 15 Nordeste 0 -- -- 83
2020-05-24 18:00:00 21.5 9 Nordeste 21 Nordeste 0 -- -- 82
2020-05-24 17:00:00 22 9 Nordeste 20 Este 0 -- -- 79
2020-05-24 16:00:00 22.3 9 Nordeste 22 Este 0 -- -- 78
2020-05-24 15:00:00 22 9 Nordeste 22 Nordeste 0 -- -- 79
2020-05-24 14:00:00 21.9 11 Nordeste 22 Nordeste 0 -- -- 79
2020-05-24 13:00:00 21.9 12 Nordeste 21 Sudeste 0 -- -- 77
2020-05-24 12:00:00 22.4 10 Nordeste 18 Nordeste 0 -- -- 72
2020-05-24 11:00:00 22.6 7 Nordeste 19 Este 0 -- -- 68
2020-05-24 10:00:00 22.8 6 Nordeste 14 Este 0 -- -- 67
2020-05-24 09:00:00 21.7 4 Sudeste 15 Norte 0 -- -- 59
2020-05-24 08:00:00 19.2 4 Este 11 Sur 0 -- -- 54
2020-05-24 07:00:00 17.2 3 Este 10 Sudeste 0 -- -- 72
2020-05-24 06:00:00 15.8 4 Nordeste 7 Sudeste 0 -- -- 92
2020-05-24 05:00:00 15.7 5 Sudeste 9 Sur 0 -- -- 89
2020-05-24 04:00:00 16.1 6 Sur 9 Sudoeste 0 -- -- 88
2020-05-24 03:00:00 16.1 5 Sur 8 Sur 0 -- -- 89
2020-05-24 02:00:00 16.5 3 Sur 6 Sur 0 -- -- 88
2020-05-24 01:00:00 17.5 5 Sudeste 8 Sur 0 -- -- 87
2020-05-24 00:00:00 17.8 3 Sur 7 Sudeste 0 -- -- 88
2020-05-23 23:00:00 18 3 Sur 6 Sudeste 0 -- -- 86
2020-05-23 22:00:00 18.7 3 Este 9 Este 0 -- -- 86
2020-05-23 21:00:00 19.3 3 Este 9 Sudeste 0 -- -- 84
2020-05-23 20:00:00 20.2 4 Sudeste 16 Norte 0 -- -- 81
2020-05-23 19:00:00 21.1 10 Nordeste 19 Norte 0 -- -- 78
2020-05-23 18:00:00 22.5 8 Nordeste 22 Nordeste 0 -- -- 71
2020-05-23 17:00:00 22.7 10 Nordeste 22 Nordeste 0 -- -- 71
2020-05-23 16:00:00 23.6 9 Nordeste 26 Este 0 -- -- 67
2020-05-23 15:00:00 22.6 9 Nordeste 26 Este 0 -- -- 70
2020-05-23 14:00:00 22.8 10 Nordeste 22 Este 0 -- -- 68
2020-05-23 13:00:00 22.1 9 Nordeste 22 Nordeste 0 -- -- 70
2020-05-23 12:00:00 19.9 7 Norte 15 Nordeste 0 -- -- 77
2020-05-23 11:00:00 19.4 5 Sudeste 14 Este 0 -- -- 80
2020-05-23 10:00:00 19.1 3 Sudeste 13 Nordeste 0 -- -- 79
2020-05-23 09:00:00 18.5 4 Oeste 9 Nordeste 0 -- -- 79
2020-05-23 08:00:00 18.1 4 Sudeste 9 Sur 0 -- -- 77
2020-05-23 07:00:00 18 5 Sur 11 Sur 0 -- -- 76
2020-05-23 06:00:00 18.3 2 Este 12 Sur 0 -- -- 78
2020-05-23 05:00:00 18.4 5 Sur 13 Oeste 0 -- -- 78
2020-05-23 04:00:00 18.3 5 Nordeste 16 Sur 0 -- -- 79
2020-05-23 03:00:00 18.3 5 Nordeste 13 Nordeste 0 -- -- 80
2020-05-23 02:00:00 18.5 5 Sudoeste 14 Este 0 -- -- 77
2020-05-23 01:00:00 18.6 5 Nordeste 13 Nordeste 0 -- -- 77
2020-05-23 00:00:00 18.8 2 Sudeste 9 Este 0 -- -- 76
2020-05-22 23:00:00 19 3 Este 8 Sur 0 -- -- 77
2020-05-22 22:00:00 19 4 Este 9 Este 0 -- -- 74
2020-05-22 21:00:00 19.1 3 Sudoeste 12 Norte 0 -- -- 75
2020-05-22 20:00:00 19.2 5 Nordeste 16 Nordeste 0 -- -- 77
2020-05-22 19:00:00 20.4 8 Nordeste 20 Nordeste 0 -- -- 71
2020-05-22 18:00:00 21.3 10 Norte 21 Norte 0 -- -- 68
2020-05-22 17:00:00 21.8 7 Norte 20 Nordeste 0 -- -- 67
2020-05-22 16:00:00 21.4 10 Nordeste 23 Norte 0 -- -- 65
2020-05-22 15:00:00 21.6 12 Norte 26 Norte 0 -- -- 66
2020-05-22 14:00:00 20.5 10 Nordeste 23 Norte 0 -- -- 66
2020-05-22 13:00:00 19.2 8 Nordeste 21 Norte 0 -- -- 71
2020-05-22 12:00:00 18.8 6 Norte 18 Norte 0 -- -- 71
2020-05-22 11:00:00 17.9 7 Norte 17 Nordeste 0 -- -- 73
2020-05-22 10:00:00 17.4 7 Nordeste 16 Nordeste 0 -- -- 76
2020-05-22 09:00:00 17.1 3 Este 15 Nordeste 0 -- -- 76
2020-05-22 08:00:00 16.9 10 Nordeste 23 Nordeste 0 -- -- 76
2020-05-22 07:00:00 16.8 3 Nordeste 18 Norte 0 -- -- 75
2020-05-22 06:00:00 16.7 6 Nordeste 17 Nordeste 0 -- -- 76
2020-05-22 05:00:00 16.7 6 Nordeste 15 Nordeste 0 -- -- 76
2020-05-22 04:00:00 16.9 5 Nordeste 12 Norte 0 -- -- 75
2020-05-22 03:00:00 16.9 4 Nordeste 12 Norte 0 -- -- 75
2020-05-22 02:00:00 17 5 Nordeste 15 Nordeste 0 -- -- 76
2020-05-22 01:00:00 17.1 6 Nordeste 16 Nordeste 0 -- -- 75
2020-05-22 00:00:00 17.3 8 Nordeste 19 Nordeste 0 -- -- 75
2020-05-21 23:00:00 17.5 5 Nordeste 18 Nordeste 0 -- -- 75
2020-05-21 22:00:00 17.8 2 Norte 17 Norte 0 -- -- 74
2020-05-21 21:00:00 17.8 8 Nordeste 19 Norte 0 -- -- 74
2020-05-21 20:00:00 18.3 7 Nordeste 19 Nordeste 0 -- -- 73
2020-05-21 19:00:00 18.6 10 Nordeste 21 Nordeste 0 -- -- 72
2020-05-21 18:00:00 19.7 11 Nordeste 23 Nordeste 0 -- -- 69
2020-05-21 17:00:00 21 12 Norte 24 Norte 0 -- -- 63
2020-05-21 16:00:00 21.1 12 Norte 26 Noroeste 0 -- -- 63
2020-05-21 15:00:00 21.1 10 Nordeste 24 Norte 0 -- -- 63
2020-05-21 14:00:00 20.6 10 Nordeste 21 Norte 0 -- -- 64
2020-05-21 13:00:00 20.6 9 Nordeste 22 Norte 0 -- -- 63
2020-05-21 12:00:00 20.4 10 Nordeste 23 Norte 0 -- -- 64
2020-05-21 11:00:00 18.4 8 Nordeste 18 Norte 0 -- -- 70
2020-05-21 10:00:00 18.1 9 Nordeste 19 Norte 0 -- -- 71
2020-05-21 09:00:00 17.7 6 Nordeste 15 Nordeste 0 -- -- 74
2020-05-21 08:00:00 17 6 Sur 11 Sur 0 -- -- 73
2020-05-21 07:00:00 17.1 3 Sudeste 14 Nordeste 0 -- -- 73
2020-05-21 06:00:00 17.2 7 Nordeste 17 Nordeste 0 -- -- 79
2020-05-21 05:00:00 17.3 4 Nordeste 14 Norte 0 -- -- 81
2020-05-21 04:00:00 17 3 Sudeste 8 Este 0 -- -- 82
2020-05-21 03:00:00 16.5 4 Sudeste 7 Sudeste 0 -- -- 85
2020-05-21 02:00:00 17.5 2 Nordeste 11 Norte 0 -- -- 83
2020-05-21 01:00:00 17.8 3 Nordeste 7 Nordeste 0 -- -- 83
2020-05-21 00:00:00 18.4 0 Calma 6 Nordeste 0 -- -- 80
2020-05-20 23:00:00 18.5 4 Nordeste 18 Nordeste 0 -- -- 80
2020-05-20 22:00:00 18.6 5 Nordeste 13 Norte 0 -- -- 79
2020-05-20 21:00:00 18.7 5 Nordeste 19 Este 0 -- -- 81
2020-05-20 20:00:00 19.2 7 Nordeste 19 Norte 0 -- -- 80
2020-05-20 19:00:00 20.1 8 Nordeste 19 Nordeste 0 -- -- 76
2020-05-20 18:00:00 21.9 9 Nordeste 21 Nordeste 0 -- -- 68
2020-05-20 17:00:00 21.8 10 Nordeste 26 Norte 0 -- -- 68
2020-05-20 16:00:00 22.3 12 Nordeste 24 Nordeste 0 -- -- 66
2020-05-20 15:00:00 21.9 13 Nordeste 24 Norte 0 -- -- 65
2020-05-20 14:00:00 22 12 Nordeste 28 Nordeste 0 -- -- 65
2020-05-20 13:00:00 21 12 Nordeste 26 Nordeste 0 -- -- 72
2020-05-20 12:00:00 20.9 9 Nordeste 27 Nordeste 0 -- -- 71
2020-05-20 11:00:00 20.2 7 Nordeste 19 Norte 0 -- -- 72
2020-05-20 10:00:00 18.9 6 Nordeste 18 Nordeste 0 -- -- 76
2020-05-20 09:00:00 18.1 6 Nordeste 15 Norte 0 -- -- 80
2020-05-20 08:00:00 17.7 6 Nordeste 15 Nordeste 0 -- -- 84
2020-05-20 07:00:00 17.6 5 Norte 18 Nordeste 0 -- -- 85
2020-05-20 06:00:00 17.6 4 Norte 10 Este 0 -- -- 86
2020-05-20 05:00:00 17.6 5 Nordeste 21 Norte 0 -- -- 82
2020-05-20 04:00:00 17.8 8 Nordeste 17 Nordeste 0 -- -- 88
2020-05-20 03:00:00 17.8 7 Norte 19 Nordeste 0 -- -- 80
2020-05-20 02:00:00 18 7 Norte 21 Nordeste 0 -- -- 80
2020-05-20 01:00:00 18 8 Nordeste 23 Norte 0 -- -- 83
2020-05-20 00:00:00 18.1 9 Norte 21 Nordeste 0 -- -- 85
2020-05-19 23:00:00 18 7 Nordeste 21 Nordeste 0 -- -- 84
2020-05-19 22:00:00 18.1 9 Nordeste 22 Nordeste 0 -- -- 84
2020-05-19 21:00:00 18.2 8 Nordeste 21 Norte 0 -- -- 83
2020-05-19 20:00:00 18.5 8 Nordeste 21 Nordeste 0 -- -- 82
2020-05-19 19:00:00 18.6 12 Nordeste 22 Nordeste 0 -- -- 82
2020-05-19 18:00:00 18.7 11 Nordeste 24 Noroeste 0 -- -- 84
2020-05-19 17:00:00 19 8 Norte 27 Norte 0 -- -- 82
2020-05-19 16:00:00 19 9 Nordeste 23 Norte 0 -- -- 81
2020-05-19 15:00:00 19.7 9 Nordeste 24 Norte 0 -- -- 77
2020-05-19 14:00:00 20.1 11 Nordeste 23 Nordeste 0 -- -- 75
2020-05-19 13:00:00 20.1 9 Norte 24 Noroeste 0 -- -- 73
2020-05-19 12:00:00 19.4 8 Norte 24 Este 0 -- -- 77
2020-05-19 11:00:00 18.9 10 Norte 26 Norte 0 -- -- 75
2020-05-19 10:00:00 18.5 10 Nordeste 24 Nordeste 0 -- -- 77
2020-05-19 09:00:00 18.1 10 Nordeste 24 Nordeste 0 -- -- 82
2020-05-19 08:00:00 17.7 9 Nordeste 23 Norte 0 -- -- 84
2020-05-19 07:00:00 17.7 12 Nordeste 22 Nordeste 0 -- -- 85
2020-05-19 06:00:00 17.6 8 Norte 27 Nordeste 0 -- -- 84
2020-05-19 05:00:00 17.8 8 Nordeste 21 Nordeste 0 -- -- 84
2020-05-19 04:00:00 17.8 6 Nordeste 17 Nordeste 0 -- -- 80
2020-05-19 03:00:00 17.7 4 Norte 16 Norte 0 -- -- 81
2020-05-19 02:00:00 17.8 7 Nordeste 18 Nordeste 0 -- -- 81
2020-05-19 01:00:00 17.6 6 Norte 18 Norte 0 -- -- 84
2020-05-19 00:00:00 17.6 7 Norte 24 Norte 0 -- -- 83
2020-05-18 23:00:00 17.7 7 Nordeste 21 Nordeste 0 -- -- 82
2020-05-18 22:00:00 17.8 7 Nordeste 22 Nordeste 0 -- -- 82
2020-05-18 21:00:00 17.9 9 Norte 23 Nordeste 0 -- -- 81
2020-05-18 20:00:00 18 6 Nordeste 23 Nordeste 0 -- -- 79
2020-05-18 19:00:00 18.3 6 Norte 23 Nordeste 0 -- -- 78
2020-05-18 18:00:00 18.5 8 Norte 24 Nordeste 0 -- -- 78
2020-05-18 17:00:00 18.5 12 Nordeste 29 Nordeste 0 -- -- 79
2020-05-18 16:00:00 18.9 9 Nordeste 21 Nordeste 0 -- -- 74
2020-05-18 15:00:00 18.9 12 Nordeste 23 Nordeste 0 -- -- 74
2020-05-18 14:00:00 19.4 9 Nordeste 22 Nordeste 0 -- -- 71
2020-05-18 13:00:00 20.7 10 Norte 24 Norte 0 -- -- 65
2020-05-18 12:00:00 19.5 8 Nordeste 20 Nordeste 0 -- -- 72
2020-05-18 11:00:00 19.6 8 Norte 25 Norte 0 -- -- 68
2020-05-18 10:00:00 18.5 10 Norte 26 Norte 0 -- -- 71
2020-05-18 09:00:00 17.9 6 Norte 25 Nordeste 0 -- -- 77
2020-05-18 08:00:00 17.2 9 Norte 27 Norte 0 -- -- 80
2020-05-18 07:00:00 16.3 5 Norte 12 Norte 0 -- -- 80
2020-05-18 06:00:00 15 5 Sur 12 Sur 0 -- -- 74
2020-05-18 05:00:00 15 8 Sur 13 Sur 0 -- -- 77
2020-05-18 04:00:00 15.2 8 Sur 11 Sur 0 -- -- 80
2020-05-18 03:00:00 15.3 5 Sur 9 Sur 0 -- -- 79
2020-05-18 02:00:00 16.2 2 Este 14 Nordeste 0 -- -- 74
2020-05-18 01:00:00 16.7 5 Nordeste 17 Norte 0 -- -- 74
2020-05-18 00:00:00 17 6 Nordeste 19 Norte 0 -- -- 72
2020-05-17 23:00:00 17 8 Nordeste 22 Nordeste 0 -- -- 70
2020-05-17 22:00:00 17.3 8 Nordeste 27 Nordeste 0 -- -- 71
2020-05-17 21:00:00 17.8 9 Nordeste 26 Nordeste 0 -- -- 69
2020-05-17 20:00:00 18 10 Nordeste 28 Nordeste 0 -- -- 70
2020-05-17 19:00:00 18.1 10 Nordeste 26 Nordeste 0 -- -- 69
2020-05-17 18:00:00 18 9 Norte 24 Norte 0 -- -- 72
2020-05-17 17:00:00 18.5 6 Norte 22 Nordeste 0 -- -- 70
2020-05-17 16:00:00 18.9 9 Norte 24 Norte 0 -- -- 63
2020-05-17 15:00:00 18.4 9 Norte 23 Norte 0 -- -- 65
2020-05-17 14:00:00 19.6 10 Norte 22 Norte 0 -- -- 65
2020-05-17 13:00:00 18.8 12 Norte 27 Norte 0 -- -- 68
2020-05-17 12:00:00 19.2 14 Norte 29 Norte 0 -- -- 65
2020-05-17 11:00:00 19.2 10 Norte 26 Norte 0 -- -- 64
2020-05-17 10:00:00 18.3 8 Nordeste 19 Nordeste 0 -- -- 54
2020-05-17 09:00:00 17.3 5 Norte 15 Nordeste 0 -- -- 65
2020-05-17 08:00:00 16.8 3 Norte 10 Norte 0 -- -- 72
2020-05-17 07:00:00 16.7 3 Norte 14 Nordeste 0 -- -- 70
2020-05-17 06:00:00 16.7 8 Norte 17 Nordeste 0 -- -- 68
2020-05-17 05:00:00 16.7 5 Norte 16 Nordeste 0 -- -- 67
2020-05-17 04:00:00 16.4 6 Norte 19 Norte 0 -- -- 62
2020-05-17 03:00:00 16.5 7 Norte 22 Nordeste 0 -- -- 60
2020-05-17 02:00:00 16.9 11 Nordeste 28 Nordeste 0 -- -- 61
2020-05-17 01:00:00 17 10 Nordeste 26 Norte 0 -- -- 62
2020-05-17 00:00:00 17.1 8 Nordeste 28 Nordeste 0 -- -- 62
2020-05-16 23:00:00 17.1 10 Nordeste 35 Nordeste 0 -- -- 63
2020-05-16 22:00:00 17.2 11 Norte 30 Nordeste 0 -- -- 66
2020-05-16 21:00:00 17.5 11 Norte 29 Noroeste 0 -- -- 64
2020-05-16 20:00:00 18 10 Nordeste 22 Nordeste 0 -- -- 60
2020-05-16 19:00:00 18.2 9 Nordeste 23 Norte 0 -- -- 62
2020-05-16 18:00:00 18.6 11 Norte 26 Norte 0 -- -- 65
2020-05-16 17:00:00 19.6 11 Nordeste 24 Norte 0 -- -- 59
2020-05-16 16:00:00 21.3 11 Norte 26 Norte 0 -- -- 50
2020-05-16 15:00:00 19.9 12 Norte 24 Norte 0 -- -- 60
2020-05-16 14:00:00 20.1 10 Norte 24 Norte 0 -- -- 59
2020-05-16 13:00:00 20.1 9 Norte 24 Norte 0 -- -- 63
2020-05-16 12:00:00 20.4 13 Norte 23 Norte 0 -- -- 62
2020-05-16 11:00:00 19.8 9 Norte 23 Norte 0 -- -- 64
2020-05-16 10:00:00 19.4 10 Norte 23 Nordeste 0 -- -- 65
2020-05-16 09:00:00 17.5 8 Nordeste 18 Nordeste 0 -- -- 77
2020-05-16 08:00:00 16.9 8 Nordeste 23 Norte 0 -- -- 79
2020-05-16 07:00:00 17 9 Nordeste 24 Nordeste 0 -- -- 79
2020-05-16 06:00:00 17 10 Nordeste 26 Norte 0 -- -- 76
2020-05-16 05:00:00 17 12 Nordeste 24 Norte 0 -- -- 77
2020-05-16 04:00:00 17.1 9 Norte 28 Nordeste 0 -- -- 78
2020-05-16 03:00:00 17.2 8 Norte 21 Nordeste 0 -- -- 79
2020-05-16 02:00:00 17.1 8 Nordeste 25 Nordeste 0 -- -- 76
2020-05-16 01:00:00 17.1 8 Nordeste 28 Nordeste 0 -- -- 79
2020-05-16 00:00:00 17.3 14 Nordeste 30 Nordeste 0 -- -- 74
2020-05-15 23:00:00 17.5 13 Nordeste 29 Nordeste 0 -- -- 75
2020-05-15 22:00:00 17.5 12 Nordeste 27 Nordeste 0 -- -- 76
2020-05-15 21:00:00 17.6 13 Nordeste 28 Nordeste 0 -- -- 75
2020-05-15 20:00:00 17.9 13 Nordeste 26 Nordeste 0 -- -- 72
2020-05-15 19:00:00 18 13 Nordeste 30 Norte 0 -- -- 73
2020-05-15 18:00:00 18.4 12 Nordeste 31 Nordeste 0 -- -- 70
2020-05-15 17:00:00 18.9 12 Nordeste 28 Nordeste 0 -- -- 66
2020-05-15 16:00:00 20.4 14 Nordeste 30 Norte 0 -- -- 59
2020-05-15 15:00:00 19.2 12 Nordeste 31 Nordeste 0 -- -- 65
2020-05-15 14:00:00 18.7 13 Nordeste 35 Nordeste 0 -- -- 73
2020-05-15 13:00:00 19 13 Nordeste 32 Nordeste 0 -- -- 72
2020-05-15 12:00:00 18.5 12 Nordeste 34 Norte 0 -- -- 73
2020-05-15 11:00:00 18.3 15 Nordeste 41 Norte 0 -- -- 75
2020-05-15 10:00:00 17.2 16 Nordeste 45 Nordeste 0 -- -- 76
2020-05-15 09:00:00 17.2 17 Nordeste 37 Norte 0 -- -- 72
2020-05-15 08:00:00 16.4 11 Norte 37 Nordeste 0 -- -- 71
2020-05-15 07:00:00 16.3 10 Nordeste 36 Nordeste 0 -- -- 68
2020-05-15 06:00:00 16.2 12 Norte 31 Norte 0 -- -- 66
2020-05-15 05:00:00 16.3 14 Norte 31 Nordeste 0 -- -- 65
2020-05-15 04:00:00 16.1 12 Nordeste 36 Norte 0 -- -- 76
2020-05-15 03:00:00 16.5 15 Nordeste 38 Nordeste 0 -- -- 60
2020-05-15 02:00:00 16.6 16 Nordeste 42 Nordeste 0 -- -- 71
2020-05-15 01:00:00 16.6 17 Nordeste 43 Norte 0.4 -- -- 69
2020-05-15 00:00:00 16.8 17 Nordeste 44 Nordeste 0 -- -- 68
2020-05-14 23:00:00 17 22 Nordeste 50 Nordeste 0 -- -- 71
2020-05-14 22:00:00 17 22 Nordeste 46 Nordeste 0 -- -- 68
2020-05-14 21:00:00 17.2 21 Nordeste 46 Nordeste 0 -- -- 71
2020-05-14 20:00:00 17.5 22 Nordeste 49 Nordeste 0 -- -- 65
2020-05-14 19:00:00 17.5 22 Nordeste 45 Nordeste 0 -- -- 69
2020-05-14 18:00:00 17.9 21 Nordeste 47 Nordeste 0 -- -- 63
2020-05-14 17:00:00 17.8 18 Nordeste 41 Nordeste 0 -- -- 64
2020-05-14 16:00:00 18.3 16 Nordeste 46 Norte 0 -- -- 64
2020-05-14 15:00:00 18.9 13 Nordeste 41 Nordeste 0 -- -- 61
2020-05-14 14:00:00 18.5 10 Nordeste 38 Nordeste 0 -- -- 65
2020-05-14 13:00:00 18.7 15 Nordeste 35 Nordeste 0 -- -- 70
2020-05-14 12:00:00 18.7 13 Nordeste 36 Nordeste 0 -- -- 66
2020-05-14 11:00:00 19.9 13 Este 36 Nordeste 0 -- -- 58
2020-05-14 10:00:00 19.3 13 Nordeste 39 Nordeste 0 -- -- 59
2020-05-14 09:00:00 17.6 13 Este 49 Nordeste 0 -- -- 67
2020-05-14 08:00:00 17.1 12 Nordeste 36 Nordeste 0 -- -- 76
2020-05-14 07:00:00 17 10 Este 31 Este 0 -- -- 72
2020-05-14 06:00:00 17.1 12 Este 25 Este 0 -- -- 73
2020-05-14 05:00:00 16.8 6 Este 20 Este 0 -- -- 73
2020-05-14 04:00:00 14.6 6 Sudeste 11 Sur 0 -- -- 77
2020-05-14 03:00:00 14.7 5 Sur 11 Sudeste 0 -- -- 72
2020-05-14 02:00:00 16.3 3 Sur 32 Este 0 -- -- 67
2020-05-14 01:00:00 17.1 11 Nordeste 38 Nordeste 0 -- -- 64
2020-05-14 00:00:00 17.3 17 Nordeste 42 Nordeste 0 -- -- 67
2020-05-13 23:00:00 17.2 12 Nordeste 45 Nordeste 0 -- -- 69
2020-05-13 22:00:00 17.3 17 Nordeste 43 Nordeste 0 -- -- 65
2020-05-13 21:00:00 17.4 11 Este 38 Este 0 -- -- 71
2020-05-13 20:00:00 17.6 11 Nordeste 36 Este 0 -- -- 66
2020-05-13 19:00:00 18.1 11 Nordeste 36 Nordeste 0 -- -- 65
2020-05-13 18:00:00 18.3 11 Nordeste 33 Este 0 -- -- 66
2020-05-13 17:00:00 18.2 11 Nordeste 33 Sudeste 0 -- -- 69
2020-05-13 16:00:00 18.3 13 Este 40 Nordeste 0 -- -- 74
2020-05-13 15:00:00 18.7 17 Nordeste 46 Nordeste 0 -- -- 76
2020-05-13 14:00:00 19.7 14 Nordeste 41 Este 0 -- -- 68
2020-05-13 13:00:00 20.7 12 Este 36 Nordeste 0 -- -- 66
2020-05-13 12:00:00 21 13 Este 35 Este 0 -- -- 57
2020-05-13 11:00:00 21.2 12 Este 27 Este 0 -- -- 54
2020-05-13 10:00:00 19.8 10 Este 19 Este 0 -- -- 64
2020-05-13 09:00:00 18.5 4 Sudoeste 30 Este 0 -- -- 72
2020-05-13 08:00:00 17.4 12 Este 32 Nordeste 0 -- -- 77
2020-05-13 07:00:00 17.3 8 Nordeste 35 Este 0 -- -- 80
2020-05-13 06:00:00 17.1 10 Nordeste 33 Nordeste 0 -- -- 83
2020-05-13 05:00:00 16.8 18 Nordeste 35 Nordeste 0.6 -- -- 88
2020-05-13 04:00:00 16.8 10 Nordeste 23 Nordeste 0.2 -- -- 87
2020-05-13 03:00:00 17.7 9 Nordeste 23 Nordeste 0 -- -- 82
2020-05-13 02:00:00 17.7 15 Nordeste 38 Nordeste 0 -- -- 82
2020-05-13 01:00:00 17.8 14 Nordeste 30 Norte 0 -- -- 82
2020-05-13 00:00:00 17.9 11 Nordeste 37 Norte 0 -- -- 78
2020-05-12 23:00:00 18.1 19 Nordeste 41 Nordeste 0 -- -- 78
2020-05-12 22:00:00 18 22 Nordeste 40 Nordeste 0 -- -- 78
2020-05-12 21:00:00 18.1 17 Nordeste 41 Nordeste 0 -- -- 78
2020-05-12 20:00:00 18.2 11 Este 36 Nordeste 0 -- -- 79
2020-05-12 19:00:00 18.6 12 Este 30 Nordeste 0 -- -- 74
2020-05-12 18:00:00 18.5 16 Este 44 Nordeste 0 -- -- 72
2020-05-12 17:00:00 18.8 18 Nordeste 41 Nordeste 0 -- -- 73
2020-05-12 16:00:00 19.7 16 Nordeste 33 Nordeste 0 -- -- 71
2020-05-12 15:00:00 20.2 15 Nordeste 34 Nordeste 0 -- -- 64
2020-05-12 14:00:00 20.4 15 Nordeste 36 Norte 0 -- -- 62
2020-05-12 13:00:00 20.1 12 Nordeste 34 Norte 0 -- -- 60
2020-05-12 12:00:00 20.1 11 Nordeste 35 Este 0 -- -- 57
2020-05-12 11:00:00 19.1 14 Norte 44 Nordeste 0 -- -- 65
2020-05-12 10:00:00 18.1 18 Nordeste 37 Nordeste 0 -- -- 73
2020-05-12 09:00:00 18 17 Nordeste 38 Nordeste 0 -- -- 68
2020-05-12 08:00:00 17.5 20 Nordeste 43 Nordeste 0 -- -- 71
2020-05-12 07:00:00 17.4 9 Este 33 Nordeste 0 -- -- 73
2020-05-12 06:00:00 17.4 8 Nordeste 30 Nordeste 0 -- -- 73
2020-05-12 05:00:00 17.3 10 Nordeste 29 Nordeste 0 -- -- 72
2020-05-12 04:00:00 17.4 7 Norte 29 Nordeste 0 -- -- 71
2020-05-12 03:00:00 17.5 12 Nordeste 31 Este 0 -- -- 70
2020-05-12 02:00:00 17.6 15 Nordeste 37 Norte 0 -- -- 70
2020-05-12 01:00:00 17.7 18 Nordeste 41 Norte 0 -- -- 70
2020-05-12 00:00:00 17.7 18 Nordeste 37 Nordeste 0 -- -- 71
2020-05-11 23:00:00 17.8 17 Nordeste 35 Norte 0 -- -- 74
2020-05-11 22:00:00 18.1 14 Nordeste 37 Nordeste 0 -- -- 72
2020-05-11 21:00:00 18.5 20 Nordeste 44 Nordeste 0 -- -- 77
2020-05-11 20:00:00 18.9 14 Nordeste 41 Nordeste 0 -- -- 85
2020-05-11 19:00:00 19.6 18 Nordeste 43 Nordeste 0 -- -- 83
2020-05-11 18:00:00 21.6 11 Este 28 Nordeste 0 -- -- 65
2020-05-11 17:00:00 23.4 10 Nordeste 30 Sudeste 0 -- -- 54
2020-05-11 16:00:00 23.9 11 Nordeste 31 Norte 0 -- -- 52
2020-05-11 15:00:00 23.9 13 Nordeste 32 Nordeste 0 -- -- 50
2020-05-11 14:00:00 23.6 10 Nordeste 25 Norte 0 -- -- 57
2020-05-11 13:00:00 22.5 13 Nordeste 30 Nordeste 0 -- -- 60
2020-05-11 12:00:00 22.5 12 Nordeste 31 Este 0 -- -- 58
2020-05-11 11:00:00 21.5 12 Este 24 Nordeste 0 -- -- 60
2020-05-11 10:00:00 20.3 5 Norte 22 Nordeste 0 -- -- 67
2020-05-11 09:00:00 19.2 5 Sudoeste 12 Nordeste 0 -- -- 75
2020-05-11 08:00:00 18.4 4 Nordeste 8 Norte 0 -- -- 80
2020-05-11 07:00:00 18.3 2 Este 20 Nordeste 0 -- -- 76
2020-05-11 06:00:00 18.4 3 Este 12 Sudeste 0 -- -- 81
2020-05-11 05:00:00 18.2 4 Este 10 Sudeste 0 -- -- 79
2020-05-11 04:00:00 18.5 3 Sudeste 10 Sudeste 0 -- -- 77
2020-05-11 03:00:00 18.4 4 Sudeste 9 Sudeste 0 -- -- 78
2020-05-11 02:00:00 18.4 7 Este 24 Nordeste 0 -- -- 79
2020-05-11 01:00:00 18.2 9 Nordeste 24 Nordeste 0 -- -- 81
2020-05-11 00:00:00 18.2 9 Nordeste 23 Nordeste 0 -- -- 81
2020-05-10 23:00:00 18.2 9 Nordeste 27 Nordeste 0 -- -- 80
2020-05-10 22:00:00 18.2 11 Nordeste 26 Nordeste 0 -- -- 79
2020-05-10 21:00:00 18.3 11 Nordeste 32 Nordeste 0 -- -- 79
2020-05-10 20:00:00 18.6 13 Nordeste 37 Nordeste 0 -- -- 77
2020-05-10 19:00:00 19 14 Nordeste 33 Nordeste 0 -- -- 77
2020-05-10 18:00:00 19.5 18 Nordeste 35 Nordeste 0 -- -- 75
2020-05-10 17:00:00 20.3 17 Nordeste 33 Nordeste 0 -- -- 76
2020-05-10 16:00:00 22 11 Nordeste 32 Este 0 -- -- 67
2020-05-10 15:00:00 22.3 11 Nordeste 28 Nordeste 0 -- -- 65
2020-05-10 14:00:00 22.2 15 Nordeste 27 Nordeste 0 -- -- 63
2020-05-10 13:00:00 21.6 13 Nordeste 29 Nordeste 0 -- -- 61
2020-05-10 12:00:00 21.7 13 Nordeste 27 Nordeste 0 -- -- 58
2020-05-10 11:00:00 21.2 9 Norte 29 Nordeste 0 -- -- 63
2020-05-10 10:00:00 19.9 8 Nordeste 23 Nordeste 0 -- -- 63
2020-05-10 09:00:00 18 6 Este 14 Norte 0 -- -- 76
2020-05-10 08:00:00 17.3 4 Norte 15 Nordeste 0 -- -- 82
2020-05-10 07:00:00 17.3 8 Nordeste 18 Nordeste 0 -- -- 81
2020-05-10 06:00:00 17.5 7 Nordeste 20 Nordeste 0 -- -- 83
2020-05-10 05:00:00 17.6 6 Nordeste 20 Nordeste 0 -- -- 84
2020-05-10 04:00:00 17.7 7 Nordeste 24 Nordeste 0 -- -- 83
2020-05-10 03:00:00 17.8 8 Norte 23 Nordeste 0 -- -- 81
2020-05-10 02:00:00 17.8 9 Nordeste 24 Nordeste 0 -- -- 81
2020-05-10 01:00:00 17.9 8 Norte 22 Nordeste 0 -- -- 81
2020-05-10 00:00:00 18 10 Nordeste 23 Nordeste 0 -- -- 81
2020-05-09 23:00:00 18.1 12 Nordeste 27 Nordeste 0 -- -- 80
2020-05-09 22:00:00 18.3 12 Nordeste 30 Nordeste 0 -- -- 83
2020-05-09 21:00:00 18.5 11 Nordeste 28 Este 0 -- -- 79
2020-05-09 20:00:00 18.9 6 Nordeste 19 Este 0 -- -- 77
2020-05-09 19:00:00 19.8 4 Sudoeste 25 Nordeste 0 -- -- 73
2020-05-09 18:00:00 19.9 14 Nordeste 27 Nordeste 0 -- -- 75
2020-05-09 17:00:00 20.5 10 Nordeste 27 Nordeste 0 -- -- 72
2020-05-09 16:00:00 20.6 11 Nordeste 26 Nordeste 0 -- -- 73
2020-05-09 15:00:00 20.7 14 Nordeste 30 Norte 0 -- -- 73
2020-05-09 14:00:00 20.8 10 Nordeste 26 Nordeste 0 -- -- 77
2020-05-09 13:00:00 18.6 9 Nordeste 28 Nordeste 2.2 -- -- 87
2020-05-09 12:00:00 18.8 6 Nordeste 29 Nordeste 0.2 -- -- 91
2020-05-09 11:00:00 20.6 10 Nordeste 22 Nordeste 0 -- -- 76
2020-05-09 10:00:00 21 4 Noroeste 18 Este 0 -- -- 68
2020-05-09 09:00:00 19.9 6 Nordeste 14 Nordeste 0 -- -- 69
2020-05-09 08:00:00 15.8 3 Este 10 Sur 0 -- -- 70
2020-05-09 07:00:00 14.9 5 Sur 9 Sudeste 0 -- -- 65
2020-05-09 06:00:00 15.9 4 Sur 14 Este 0 -- -- 61
2020-05-09 05:00:00 14 3 Sur 10 Sur 0 -- -- 71
2020-05-09 04:00:00 14.5 4 Sur 10 Sudeste 0 -- -- 72
2020-05-09 03:00:00 15.4 6 Sur 11 Sur 0 -- -- 72
2020-05-09 02:00:00 15.8 6 Sur 10 Sur 0 -- -- 73
2020-05-09 01:00:00 15.6 5 Sur 11 Sur 0 -- -- 72
2020-05-09 00:00:00 15.8 5 Sur 8 Sur 0 -- -- 68
2020-05-08 23:00:00 16.9 5 Sur 10 Sur 0 -- -- 68
2020-05-08 22:00:00 17.7 5 Sur 9 Sur 0 -- -- 70
2020-05-08 21:00:00 18.8 3 Sudeste 12 Norte 0 -- -- 75
2020-05-08 20:00:00 19.4 6 Nordeste 18 Nordeste 0 -- -- 74
2020-05-08 19:00:00 22 7 Nordeste 17 Este 0 -- -- 64
2020-05-08 18:00:00 22 8 Nordeste 26 Norte 0 -- -- 64
2020-05-08 17:00:00 21.2 11 Nordeste 23 Nordeste 0 -- -- 66
2020-05-08 16:00:00 21.7 10 Nordeste 25 Nordeste 0 -- -- 63
2020-05-08 15:00:00 21.4 10 Norte 23 Nordeste 0 -- -- 64
2020-05-08 14:00:00 20.9 11 Nordeste 26 Norte 0 -- -- 66
2020-05-08 13:00:00 22.1 9 Este 25 Nordeste 0 -- -- 62
2020-05-08 12:00:00 21.7 7 Nordeste 20 Nordeste 0 -- -- 64
2020-05-08 11:00:00 20.6 9 Nordeste 20 Norte 0 -- -- 67
2020-05-08 10:00:00 20 9 Nordeste 17 Nordeste 0 -- -- 69
2020-05-08 09:00:00 18.4 5 Sur 10 Sur 0 -- -- 68
2020-05-08 08:00:00 15.8 6 Sur 14 Sur 0 -- -- 74
2020-05-08 07:00:00 16 6 Sur 12 Sur 0 -- -- 72
2020-05-08 06:00:00 16.2 5 Sur 12 Sur 0 -- -- 72
2020-05-08 05:00:00 15.6 7 Sur 12 Sur 0 -- -- 74
2020-05-08 04:00:00 15.6 4 Sur 10 Oeste 0 -- -- 78
2020-05-08 03:00:00 16.2 4 Sur 8 Norte 0 -- -- 80
2020-05-08 02:00:00 17.6 3 Noroeste 11 Nordeste 0 -- -- 77
2020-05-08 01:00:00 17.9 5 Nordeste 17 Nordeste 0 -- -- 80
2020-05-08 00:00:00 18.1 6 Nordeste 19 Nordeste 0 -- -- 81
2020-05-07 23:00:00 18.2 6 Nordeste 21 Nordeste 0 -- -- 80
2020-05-07 22:00:00 18.3 7 Norte 20 Norte 0 -- -- 76
2020-05-07 21:00:00 18.4 9 Nordeste 20 Nordeste 0 -- -- 78
2020-05-07 20:00:00 18.7 9 Nordeste 22 Norte 0 -- -- 76
2020-05-07 19:00:00 19.3 9 Nordeste 23 Nordeste 0 -- -- 74
2020-05-07 18:00:00 20.2 11 Nordeste 23 Nordeste 0 -- -- 71
2020-05-07 17:00:00 21.8 11 Nordeste 27 Nordeste 0 -- -- 63
2020-05-07 16:00:00 22.1 11 Nordeste 25 Nordeste 0 -- -- 57
2020-05-07 15:00:00 21.8 13 Norte 26 Nordeste 0 -- -- 60
2020-05-07 14:00:00 21.5 13 Nordeste 30 Norte 0 -- -- 63
2020-05-07 13:00:00 21.6 11 Nordeste 28 Norte 0 -- -- 61
2020-05-07 12:00:00 21.2 12 Nordeste 24 Nordeste 0 -- -- 61
2020-05-07 11:00:00 20.7 9 Nordeste 22 Nordeste 0 -- -- 62
2020-05-07 10:00:00 19.7 9 Nordeste 19 Nordeste 0 -- -- 71
2020-05-07 09:00:00 18.9 4 Sudoeste 12 Oeste 0 -- -- 73
2020-05-07 08:00:00 16.6 3 Este 8 Nordeste 0 -- -- 80
2020-05-07 07:00:00 15.2 3 Sudoeste 9 Sudoeste 0 -- -- 82
2020-05-07 06:00:00 15.9 3 Este 6 Este 0 -- -- 82
2020-05-07 05:00:00 17 3 Norte 10 Nordeste 0 -- -- 81
2020-05-07 04:00:00 16.5 2 Sudeste 10 Sur 0 -- -- 77
2020-05-07 03:00:00 16.7 4 Sudeste 8 Sur 0 -- -- 77
2020-05-07 02:00:00 17.5 0 Calma 10 Nordeste 0 -- -- 79
2020-05-07 01:00:00 17.8 4 Nordeste 15 Nordeste 0 -- -- 80
2020-05-07 00:00:00 18.1 6 Nordeste 21 Nordeste 0 -- -- 80
2020-05-06 23:00:00 18.3 6 Nordeste 19 Este 0 -- -- 82
2020-05-06 22:00:00 18.3 6 Nordeste 19 Nordeste 0 -- -- 77
2020-05-06 21:00:00 18.4 6 Nordeste 18 Nordeste 0 -- -- 78
2020-05-06 20:00:00 18.8 8 Nordeste 17 Norte 0 -- -- 79
2020-05-06 19:00:00 19.3 8 Nordeste 19 Nordeste 0 -- -- 75
2020-05-06 18:00:00 20.3 10 Nordeste 21 Norte 0 -- -- 73
2020-05-06 17:00:00 21.5 10 Nordeste 21 Noroeste 0 -- -- 66
2020-05-06 16:00:00 21.2 11 Nordeste 23 Nordeste 0 -- -- 67
2020-05-06 15:00:00 20.9 10 Nordeste 20 Nordeste 0 -- -- 64
2020-05-06 14:00:00 20.7 12 Nordeste 22 Nordeste 0 -- -- 66
2020-05-06 13:00:00 20.6 8 Nordeste 19 Nordeste 0 -- -- 62
2020-05-06 12:00:00 20.4 8 Nordeste 15 Norte 0 -- -- 62
2020-05-06 11:00:00 19.8 7 Este 16 Este 0 -- -- 70
2020-05-06 10:00:00 19.2 5 Nordeste 12 Norte 0 -- -- 71
2020-05-06 09:00:00 17.4 3 Este 6 Sudeste 0 -- -- 78
2020-05-06 08:00:00 15.7 4 Sur 8 Sur 0 -- -- 82
2020-05-06 07:00:00 15.9 4 Sur 7 Sudoeste 0 -- -- 81
2020-05-06 06:00:00 15.9 4 Sur 8 Sudeste 0 -- -- 80
2020-05-06 05:00:00 15.8 3 Sur 6 Sudeste 0 -- -- 81
2020-05-06 04:00:00 16.9 2 Norte 8 Nordeste 0 -- -- 77
2020-05-06 03:00:00 17.4 4 Norte 9 Norte 0 -- -- 77
2020-05-06 02:00:00 17.7 3 Nordeste 12 Norte 0 -- -- 78
2020-05-06 01:00:00 18 6 Nordeste 15 Norte 0 -- -- 76
2020-05-06 00:00:00 18.1 6 Nordeste 15 Norte 0 -- -- 75
2020-05-05 23:00:00 18.4 4 Norte 13 Nordeste 0 -- -- 74
2020-05-05 22:00:00 18.5 5 Nordeste 14 Nordeste 0 -- -- 72
2020-05-05 21:00:00 18.6 5 Nordeste 12 Nordeste 0 -- -- 72
2020-05-05 20:00:00 18.9 6 Nordeste 19 Nordeste 0 -- -- 72
2020-05-05 19:00:00 20.4 9 Nordeste 22 Norte 0 -- -- 66
2020-05-05 18:00:00 21.6 9 Nordeste 22 Norte 0 -- -- 60
2020-05-05 17:00:00 21.2 12 Nordeste 24 Nordeste 0 -- -- 62
2020-05-05 16:00:00 21 13 Nordeste 23 Nordeste 0 -- -- 62
2020-05-05 15:00:00 21.4 9 Nordeste 22 Norte 0 -- -- 60
2020-05-05 14:00:00 20.6 10 Nordeste 24 Norte 0 -- -- 63
2020-05-05 13:00:00 20.7 12 Nordeste 26 Este 0 -- -- 62
2020-05-05 12:00:00 20.6 12 Nordeste 26 Nordeste 0 -- -- 63
2020-05-05 11:00:00 20.4 12 Nordeste 21 Este 0 -- -- 61
2020-05-05 10:00:00 20.3 6 Sudeste 15 Este 0 -- -- 59
2020-05-05 09:00:00 17.6 3 Sur 12 Sur 0 -- -- 64
2020-05-05 08:00:00 14.2 6 Sudoeste 14 Sur 0 -- -- 76
2020-05-05 07:00:00 14.5 8 Sur 15 Sur 0 -- -- 78
2020-05-05 06:00:00 14.9 7 Sur 14 Sur 0 -- -- 75
2020-05-05 05:00:00 15.2 7 Sur 15 Sur 0 -- -- 75
2020-05-05 04:00:00 15.8 8 Sur 18 Sur 0 -- -- 73
2020-05-05 03:00:00 16.3 7 Sur 12 Sur 0 -- -- 75
2020-05-05 02:00:00 17.1 4 Sur 7 Sur 0 -- -- 76
2020-05-05 01:00:00 18.1 3 Norte 6 Norte 0 -- -- 72
2020-05-05 00:00:00 18.2 2 Norte 9 Norte 0 -- -- 72
2020-05-04 23:00:00 18.3 3 Norte 17 Nordeste 0 -- -- 72
2020-05-04 22:00:00 18.3 6 Nordeste 17 Este 0 -- -- 74
2020-05-04 21:00:00 18.4 5 Nordeste 13 Norte 0 -- -- 76
2020-05-04 20:00:00 18.7 4 Nordeste 14 Nordeste 0 -- -- 75
2020-05-04 19:00:00 19.2 3 Sudoeste 13 Sudoeste 0 -- -- 73
2020-05-04 18:00:00 19.3 6 Sudoeste 12 Este 0 -- -- 75
2020-05-04 17:00:00 18.5 5 Norte 12 Noroeste 0 -- -- 78
2020-05-04 16:00:00 19.2 5 Nordeste 13 Norte 0 -- -- 76
2020-05-04 15:00:00 19.8 6 Norte 17 Nordeste 0 -- -- 73
2020-05-04 14:00:00 20.3 6 Norte 17 Norte 0 -- -- 71
2020-05-04 13:00:00 20.3 9 Norte 19 Nordeste 0 -- -- 72
2020-05-04 12:00:00 20.5 9 Norte 24 Norte 0 -- -- 73
2020-05-04 11:00:00 20.9 8 Nordeste 18 Norte 0 -- -- 68
2020-05-04 10:00:00 20.8 9 Nordeste 19 Nordeste 0 -- -- 68
2020-05-04 09:00:00 20 4 Sudoeste 17 Oeste 0 -- -- 61
2020-05-04 08:00:00 16.2 4 Noroeste 11 Sur 0 -- -- 71
2020-05-04 07:00:00 16.9 7 Sudoeste 22 Sudoeste 0 -- -- 60
2020-05-04 06:00:00 17.2 6 Sur 17 Sur 0 -- -- 59
2020-05-04 05:00:00 18.2 6 Sudoeste 28 Sudoeste 0 -- -- 56
2020-05-04 04:00:00 17.9 6 Sur 26 Sudeste 0 -- -- 56
2020-05-04 03:00:00 18.5 6 Sudeste 27 Noroeste 0 -- -- 56
2020-05-04 02:00:00 19.5 5 Noroeste 25 Sudoeste 0 -- -- 53
2020-05-04 01:00:00 19.9 9 Sudoeste 30 Sudoeste 0 -- -- 68
2020-05-04 00:00:00 20.3 9 Oeste 35 Sudoeste 0 -- -- 66
2020-05-03 23:00:00 20.6 7 Oeste 29 Noroeste 0 -- -- 66
2020-05-03 22:00:00 20.9 10 Oeste 36 Oeste 0 -- -- 66
2020-05-03 21:00:00 21 18 Oeste 36 Oeste 0 -- -- 65
2020-05-03 20:00:00 21.4 9 Oeste 21 Oeste 0 -- -- 62
2020-05-03 19:00:00 23 6 Norte 17 Norte 0 -- -- 56
2020-05-03 18:00:00 23.7 8 Norte 19 Norte 0 -- -- 55
2020-05-03 17:00:00 23 8 Norte 18 Norte 0 -- -- 58
2020-05-03 16:00:00 22.3 9 Norte 22 Norte 0 -- -- 63
2020-05-03 15:00:00 22 9 Norte 23 Norte 0 -- -- 65
2020-05-03 14:00:00 21.2 9 Nordeste 26 Nordeste 0 -- -- 66
2020-05-03 13:00:00 20.8 12 Nordeste 23 Nordeste 0 -- -- 69
2020-05-03 12:00:00 20.8 9 Norte 21 Norte 0 -- -- 68
2020-05-03 11:00:00 19.9 9 Norte 18 Norte 0 -- -- 70
2020-05-03 10:00:00 19.3 6 Nordeste 12 Norte 0 -- -- 71
2020-05-03 09:00:00 16.5 0 Calma 11 Sudoeste 0 -- -- 80
2020-05-03 08:00:00 12.6 3 Sur 11 Sur 0 -- -- 90
2020-05-03 07:00:00 12.4 3 Sur 12 Sur 0 -- -- 89
2020-05-03 06:00:00 13 7 Sur 12 Sur 0 -- -- 86
2020-05-03 05:00:00 13.6 7 Sur 13 Sur 0 -- -- 87
2020-05-03 04:00:00 13.4 4 Sur 8 Sur 0 -- -- 90
2020-05-03 03:00:00 13.5 5 Sur 9 Sur 0 -- -- 86
2020-05-03 02:00:00 14.5 7 Sudeste 12 Sur 0 -- -- 78
2020-05-03 01:00:00 15.1 4 Sur 18 Sur 0 -- -- 80
2020-05-03 00:00:00 16.9 5 Sur 10 Sur 0 -- -- 76
2020-05-02 23:00:00 17.6 2 Oeste 9 Sur 0 -- -- 78
2020-05-02 22:00:00 17.7 3 Este 6 Nordeste 0 -- -- 85
2020-05-02 21:00:00 18.4 3 Este 8 Este 0 -- -- 82
2020-05-02 20:00:00 19.3 4 Nordeste 12 Norte 0 -- -- 76
2020-05-02 19:00:00 21.9 6 Norte 14 Noroeste 0 -- -- 64
2020-05-02 18:00:00 21.9 8 Nordeste 21 Nordeste 0 -- -- 64
2020-05-02 17:00:00 22 9 Norte 18 Norte 0 -- -- 66
2020-05-02 16:00:00 22 9 Nordeste 21 Norte 0 -- -- 67
2020-05-02 15:00:00 21.7 9 Norte 19 Norte 0 -- -- 67
2020-05-02 14:00:00 21.1 11 Norte 22 Norte 0 -- -- 68
2020-05-02 13:00:00 20.8 10 Norte 22 Nordeste 0 -- -- 69
2020-05-02 12:00:00 20.3 10 Norte 22 Noroeste 0 -- -- 70
2020-05-02 11:00:00 20.1 7 Norte 15 Norte 0 -- -- 72
2020-05-02 10:00:00 18.8 4 Norte 10 Norte 0 -- -- 78
2020-05-02 09:00:00 16.4 2 Sur 8 Sur 0 -- -- 84
2020-05-02 08:00:00 14.6 6 Sur 10 Sur 0 -- -- 85
2020-05-02 07:00:00 15.3 6 Sur 11 Sur 0 -- -- 80
2020-05-02 06:00:00 16.8 6 Sudeste 16 Oeste 0 -- -- 71
2020-05-02 05:00:00 17.5 4 Sur 13 Sudoeste 0 -- -- 76
2020-05-02 04:00:00 17.7 4 Sur 11 Sudoeste 0 -- -- 71
2020-05-02 03:00:00 17.9 4 Sur 10 Sur 0 -- -- 76
2020-05-02 02:00:00 17.9 6 Sur 10 Sur 0 -- -- 70
2020-05-02 01:00:00 18.1 3 Nordeste 10 Norte 0 -- -- 80
2020-05-02 00:00:00 18.2 2 Noroeste 15 Nordeste 0 -- -- 82
2020-05-01 23:00:00 18.1 5 Nordeste 17 Nordeste 0 -- -- 83
2020-05-01 22:00:00 18.3 5 Nordeste 13 Nordeste 0 -- -- 82
2020-05-01 21:00:00 18.4 6 Nordeste 17 Norte 0 -- -- 80
2020-05-01 20:00:00 19.1 5 Nordeste 15 Nordeste 0 -- -- 78
2020-05-01 19:00:00 20.2 6 Norte 18 Nordeste 0 -- -- 73
2020-05-01 18:00:00 21 8 Nordeste 22 Nordeste 0 -- -- 70
2020-05-01 17:00:00 20.9 12 Nordeste 23 Norte 0 -- -- 68
2020-05-01 16:00:00 21.5 11 Nordeste 21 Norte 0 -- -- 69
2020-05-01 15:00:00 21.2 12 Norte 25 Norte 0 -- -- 68
2020-05-01 14:00:00 21.2 9 Nordeste 23 Norte 0 -- -- 69
2020-05-01 13:00:00 21 11 Nordeste 23 Nordeste 0 -- -- 68
2020-05-01 12:00:00 20.2 10 Nordeste 19 Nordeste 0 -- -- 68
2020-05-01 11:00:00 19.8 9 Nordeste 19 Norte 0 -- -- 70
2020-05-01 10:00:00 19.6 5 Nordeste 10 Nordeste 0 -- -- 70
2020-05-01 09:00:00 17.3 2 Sur 11 Sur 0 -- -- 73
2020-05-01 08:00:00 15.3 6 Sur 14 Sur 0 -- -- 78
2020-05-01 07:00:00 14.8 5 Sur 9 Sur 0 -- -- 81
2020-05-01 06:00:00 15.3 6 Sur 11 Sur 0 -- -- 78
2020-05-01 05:00:00 16.1 4 Sur 12 Sudeste 0 -- -- 75
2020-05-01 04:00:00 16.4 4 Sur 8 Sur 0 -- -- 78
2020-05-01 03:00:00 16.6 3 Nordeste 6 Sudoeste 0 -- -- 78
2020-05-01 02:00:00 17.1 0 Calma 10 Noroeste 0 -- -- 77
2020-05-01 01:00:00 17.4 6 Nordeste 13 Norte 0 -- -- 83
2020-05-01 00:00:00 17.6 6 Nordeste 13 Nordeste 0 -- -- 82
2020-04-30 23:00:00 17.9 6 Nordeste 15 Este 0 -- -- 82
2020-04-30 22:00:00 17.8 5 Nordeste 14 Nordeste 0 -- -- 81
2020-04-30 21:00:00 18.1 5 Nordeste 14 Nordeste 0 -- -- 79
2020-04-30 20:00:00 18.6 6 Nordeste 16 Norte 0 -- -- 77
2020-04-30 19:00:00 20.7 8 Norte 17 Norte 0 -- -- 68
2020-04-30 18:00:00 20.9 8 Nordeste 21 Nordeste 0 -- -- 67
2020-04-30 17:00:00 21.2 8 Nordeste 22 Nordeste 0 -- -- 65
2020-04-30 16:00:00 21.1 9 Nordeste 24 Norte 0 -- -- 65
2020-04-30 15:00:00 21.2 9 Nordeste 22 Norte 0 -- -- 64
2020-04-30 14:00:00 20.1 12 Nordeste 21 Nordeste 0 -- -- 67
2020-04-30 13:00:00 19.2 8 Nordeste 22 Nordeste 0 -- -- 70
2020-04-30 12:00:00 19.7 13 Nordeste 26 Nordeste 0 -- -- 69
2020-04-30 11:00:00 18.3 8 Nordeste 17 Nordeste 0 -- -- 73
2020-04-30 10:00:00 17.9 7 Nordeste 18 Nordeste 0 -- -- 73
2020-04-30 09:00:00 16.9 6 Nordeste 19 Nordeste 0 -- -- 78
2020-04-30 08:00:00 16.6 8 Nordeste 21 Nordeste 0 -- -- 79
2020-04-30 07:00:00 16.5 8 Nordeste 19 Nordeste 0 -- -- 79
2020-04-30 06:00:00 16.6 5 Nordeste 17 Nordeste 0 -- -- 82
2020-04-30 05:00:00 16.4 3 Este 15 Nordeste 0 -- -- 79
2020-04-30 04:00:00 16.6 5 Nordeste 17 Nordeste 0 -- -- 77
2020-04-30 03:00:00 16.5 4 Norte 15 Nordeste 0 -- -- 79
2020-04-30 02:00:00 16.8 4 Norte 19 Nordeste 0 -- -- 79
2020-04-30 01:00:00 17 6 Norte 23 Norte 0 -- -- 78
2020-04-30 00:00:00 17.2 6 Nordeste 15 Nordeste 0 -- -- 79
2020-04-29 23:00:00 17.1 8 Nordeste 24 Nordeste 0 -- -- 78
2020-04-29 22:00:00 17.3 11 Norte 23 Norte 0 -- -- 77
2020-04-29 21:00:00 17.3 10 Nordeste 24 Nordeste 0 -- -- 79
2020-04-29 20:00:00 17.9 6 Nordeste 21 Nordeste 0 -- -- 73
2020-04-29 19:00:00 18.4 8 Norte 19 Noroeste 0 -- -- 72
2020-04-29 18:00:00 19.3 7 Nordeste 19 Norte 0 -- -- 70
2020-04-29 17:00:00 20.2 10 Norte 22 Norte 0 -- -- 65
2020-04-29 16:00:00 19.6 9 Nordeste 21 Nordeste 0 -- -- 68
2020-04-29 15:00:00 20 8 Norte 19 Nordeste 0 -- -- 65
2020-04-29 14:00:00 19.8 9 Norte 24 Norte 0 -- -- 65
2020-04-29 13:00:00 19.8 11 Norte 24 Norte 0 -- -- 65
2020-04-29 12:00:00 19.3 12 Norte 26 Nordeste 0 -- -- 70
2020-04-29 11:00:00 18.2 8 Nordeste 22 Nordeste 0 -- -- 73
2020-04-29 10:00:00 18 10 Norte 23 Nordeste 0 -- -- 75
2020-04-29 09:00:00 17.2 6 Norte 18 Norte 0 -- -- 80
2020-04-29 08:00:00 16.8 7 Nordeste 19 Norte 0 -- -- 84
2020-04-29 07:00:00 16.8 6 Nordeste 22 Nordeste 0 -- -- 81
2020-04-29 06:00:00 16.5 3 Nordeste 10 Nordeste 0 -- -- 81
2020-04-29 05:00:00 16.7 5 Norte 15 Nordeste 0 -- -- 79
2020-04-29 04:00:00 16.9 5 Nordeste 18 Nordeste 0 -- -- 80
2020-04-29 03:00:00 17.2 7 Nordeste 19 Norte 0 -- -- 81
2020-04-29 02:00:00 17.5 5 Nordeste 19 Nordeste 0 -- -- 82
2020-04-29 01:00:00 17.5 5 Nordeste 21 Nordeste 0 -- -- 81
2020-04-29 00:00:00 17.6 8 Nordeste 21 Nordeste 0 -- -- 82